createdAt,value
2022-12-25T00:01:21.340Z,99.90
2022-12-25T00:03:48.560Z,99.90
2022-12-25T00:06:15.738Z,99.90
2022-12-25T00:08:42.841Z,99.90
2022-12-25T00:11:14.075Z,99.90
2022-12-25T00:13:41.691Z,99.90
2022-12-25T00:16:11.692Z,99.90
2022-12-25T00:18:38.675Z,99.90
2022-12-25T00:21:07.196Z,99.90
2022-12-25T00:23:35.428Z,99.90
2022-12-25T00:26:08.140Z,99.90
2022-12-25T00:28:36.204Z,99.90
2022-12-25T00:31:15.768Z,99.90
2022-12-25T00:33:44.456Z,99.90
2022-12-25T00:36:12.550Z,99.90
2022-12-25T00:38:40.713Z,99.90
2022-12-25T00:41:10.088Z,99.90
2022-12-25T00:43:38.522Z,99.90
2022-12-25T00:46:06.827Z,99.90
2022-12-25T00:48:34.713Z,99.90
2022-12-25T00:51:04.878Z,99.90
2022-12-25T00:53:31.802Z,99.90
2022-12-25T00:56:01.424Z,99.90
2022-12-25T00:58:30.777Z,99.90
2022-12-25T01:00:58.237Z,99.90
2022-12-25T01:03:25.960Z,99.90
2022-12-25T01:06:01.763Z,99.90
2022-12-25T01:08:31.639Z,99.90
2022-12-25T01:11:00.980Z,99.90
2022-12-25T01:13:29.154Z,99.90
2022-12-25T01:15:56.256Z,99.90
2022-12-25T01:18:25.069Z,99.90
2022-12-25T01:20:52.003Z,99.90
2022-12-25T01:23:18.875Z,99.90
2022-12-25T01:25:45.911Z,99.90
2022-12-25T01:28:13.146Z,99.90
2022-12-25T01:30:47.479Z,99.90
2022-12-25T01:33:14.492Z,99.90
2022-12-25T01:35:42.040Z,99.90
2022-12-25T01:38:09.432Z,99.90
2022-12-25T01:40:36.389Z,99.90
2022-12-25T01:43:03.530Z,99.90
2022-12-25T01:45:37.700Z,99.90
2022-12-25T01:48:09.288Z,99.90
2022-12-25T01:50:39.748Z,99.90
2022-12-25T01:53:07.562Z,99.90
2022-12-25T01:55:36.165Z,99.90
2022-12-25T01:58:03.354Z,99.90
2022-12-25T02:00:31.903Z,99.90
2022-12-25T02:02:59.608Z,99.90
2022-12-25T02:05:29.721Z,99.90
2022-12-25T02:08:01.004Z,99.90
2022-12-25T02:10:28.022Z,99.90
2022-12-25T02:12:55.251Z,99.90
2022-12-25T02:15:26.759Z,99.90
2022-12-25T02:18:02.859Z,99.90
2022-12-25T02:20:48.164Z,99.90
2022-12-25T02:23:39.994Z,99.90
2022-12-25T02:26:32.391Z,99.90
2022-12-25T02:29:09.693Z,99.90
2022-12-25T02:32:05.241Z,99.90
2022-12-25T02:34:45.278Z,99.90
2022-12-25T02:37:44.932Z,99.90
2022-12-25T02:40:38.342Z,99.90
2022-12-25T02:43:29.742Z,99.90
2022-12-25T02:46:23.234Z,99.90
2022-12-25T02:49:23.579Z,99.90
2022-12-25T02:52:14.537Z,99.90
2022-12-25T02:55:04.159Z,99.90
2022-12-25T02:57:58.459Z,99.90
2022-12-25T03:00:44.252Z,99.90
2022-12-25T03:03:32.981Z,99.90
2022-12-25T03:06:21.900Z,99.90
2022-12-25T03:08:54.857Z,99.90
2022-12-25T03:11:33.693Z,99.90
2022-12-25T03:14:22.541Z,99.90
2022-12-25T03:16:54.127Z,99.90
2022-12-25T03:19:44.220Z,99.90
2022-12-25T03:22:37.761Z,99.90
2022-12-25T03:25:23.562Z,99.90
2022-12-25T03:27:53.965Z,99.90
2022-12-25T03:30:41.347Z,99.90
2022-12-25T03:33:47.024Z,99.90
2022-12-25T03:36:41.459Z,99.90
2022-12-25T03:39:46.011Z,99.90
2022-12-25T03:42:35.489Z,99.90
2022-12-25T03:45:39.900Z,99.90
2022-12-25T03:48:13.001Z,99.90
2022-12-25T03:51:11.988Z,99.90
2022-12-25T03:54:12.890Z,97.10
2022-12-25T03:57:00.395Z,99.90
2022-12-25T03:59:46.116Z,99.90
2022-12-25T04:02:31.614Z,99.90
2022-12-25T04:05:17.060Z,99.90
2022-12-25T04:08:02.584Z,99.90
2022-12-25T04:10:47.926Z,99.90
2022-12-25T04:13:34.287Z,99.90
2022-12-25T04:16:19.645Z,99.90
2022-12-25T04:19:05.193Z,99.90
2022-12-25T04:21:50.704Z,99.90
2022-12-25T04:24:36.281Z,99.90
2022-12-25T04:27:21.756Z,99.90
2022-12-25T04:30:07.095Z,99.90
2022-12-25T04:32:52.521Z,99.90
2022-12-25T04:35:38.013Z,99.90
2022-12-25T04:38:04.923Z,99.90
2022-12-25T04:40:31.830Z,99.90
2022-12-25T04:42:58.714Z,99.90
2022-12-25T04:45:25.667Z,99.90
2022-12-25T04:47:52.775Z,99.90
2022-12-25T04:50:19.756Z,99.90
2022-12-25T04:52:46.698Z,99.90
2022-12-25T04:55:13.756Z,99.90
2022-12-25T04:57:40.662Z,99.90
2022-12-25T05:00:08.323Z,99.90
2022-12-25T05:02:35.500Z,99.90
2022-12-25T05:05:02.654Z,99.90
2022-12-25T05:07:29.569Z,99.90
2022-12-25T05:09:56.637Z,99.90
2022-12-25T05:12:23.662Z,99.90
2022-12-25T05:14:50.560Z,99.90
2022-12-25T05:17:17.457Z,99.90
2022-12-25T05:19:44.569Z,99.90
2022-12-25T05:22:11.632Z,99.90
2022-12-25T05:24:38.731Z,99.90
2022-12-25T05:27:05.676Z,99.90
2022-12-25T05:29:32.591Z,99.90
2022-12-25T05:31:59.620Z,99.90
2022-12-25T05:34:26.550Z,99.90
2022-12-25T05:36:53.519Z,99.90
2022-12-25T05:39:20.422Z,99.90
2022-12-25T05:41:47.285Z,99.90
2022-12-25T05:44:14.511Z,99.90
2022-12-25T05:46:41.605Z,99.90
2022-12-25T05:49:09.301Z,99.90
2022-12-25T05:51:36.389Z,1.00
2022-12-25T05:54:03.380Z,1.00
2022-12-25T05:56:30.357Z,1.00
2022-12-25T05:58:57.639Z,1.00
2022-12-25T06:01:27.145Z,1.00
2022-12-25T06:03:54.241Z,1.00
2022-12-25T06:06:21.271Z,1.00
2022-12-25T06:08:48.279Z,1.00
2022-12-25T06:11:15.980Z,1.00
2022-12-25T06:13:42.977Z,1.00
2022-12-25T06:16:11.849Z,1.00
2022-12-25T06:18:42.525Z,1.00
2022-12-25T06:21:11.195Z,1.00
2022-12-25T06:23:39.277Z,1.00
2022-12-25T06:26:10.583Z,1.00
2022-12-25T06:28:37.844Z,1.00
2022-12-25T06:31:17.639Z,1.00
2022-12-25T06:33:44.980Z,1.00
2022-12-25T06:36:18.217Z,1.00
2022-12-25T06:38:45.458Z,1.00
2022-12-25T06:41:15.694Z,1.40
2022-12-25T06:43:44.167Z,1.00
2022-12-25T06:46:12.508Z,1.00
2022-12-25T06:48:41.054Z,1.00
2022-12-25T06:51:08.317Z,12.00
2022-12-25T06:53:40.544Z,1.00
2022-12-25T06:56:15.284Z,1.00
2022-12-25T06:58:44.696Z,1.00
2022-12-25T07:01:22.064Z,1.00
2022-12-25T07:03:52.198Z,1.00
2022-12-25T07:06:19.288Z,1.00
2022-12-25T07:08:46.206Z,1.00
2022-12-25T07:11:13.310Z,56.60
2022-12-25T07:13:40.434Z,99.90
2022-12-25T07:16:07.888Z,99.90
2022-12-25T07:18:35.617Z,99.90
2022-12-25T07:21:11.913Z,99.90
2022-12-25T07:23:39.367Z,1.00
2022-12-25T07:26:06.417Z,1.00
2022-12-25T07:28:33.859Z,1.00
2022-12-25T07:31:02.986Z,1.00
2022-12-25T07:33:30.277Z,1.00
2022-12-25T07:35:58.548Z,1.00
2022-12-25T07:38:25.948Z,1.00
2022-12-25T07:40:53.605Z,1.00
2022-12-25T07:43:20.767Z,1.00
2022-12-25T07:45:47.764Z,1.00
2022-12-25T07:48:16.850Z,1.00
2022-12-25T07:50:44.246Z,1.00
2022-12-25T07:53:11.227Z,1.00
2022-12-25T07:55:38.201Z,1.00
2022-12-25T07:58:07.086Z,1.00
2022-12-25T08:00:34.354Z,1.00
2022-12-25T08:03:01.840Z,99.90
2022-12-25T08:05:29.006Z,99.90
2022-12-25T08:07:58.105Z,99.90
2022-12-25T08:10:25.504Z,99.90
2022-12-25T08:12:56.258Z,99.90
2022-12-25T08:15:23.248Z,80.90
2022-12-25T08:17:50.142Z,26.50
2022-12-25T08:20:17.316Z,1.00
2022-12-25T08:22:44.311Z,1.00
2022-12-25T08:25:11.238Z,1.00
2022-12-25T08:27:38.178Z,1.00
2022-12-25T08:30:05.690Z,1.00
2022-12-25T08:32:33.862Z,1.00
2022-12-25T08:35:00.763Z,1.00
2022-12-25T08:37:29.969Z,1.00
2022-12-25T08:39:56.924Z,99.90
2022-12-25T08:42:24.139Z,99.90
2022-12-25T08:44:51.076Z,99.90
2022-12-25T08:47:18.466Z,99.90
2022-12-25T08:49:45.388Z,99.90
2022-12-25T08:52:12.602Z,99.90
2022-12-25T08:54:39.621Z,99.90
2022-12-25T08:57:06.550Z,99.90
2022-12-25T08:59:33.486Z,99.90
2022-12-25T09:02:00.483Z,99.90
2022-12-25T09:04:27.609Z,99.90
2022-12-25T09:06:54.625Z,99.90
2022-12-25T09:09:21.581Z,99.90
2022-12-25T09:11:49.417Z,99.90
2022-12-25T09:14:16.488Z,99.90
2022-12-25T09:16:43.444Z,99.90
2022-12-25T09:19:10.415Z,99.90
2022-12-25T09:21:37.384Z,99.90
2022-12-25T09:24:05.028Z,99.90
2022-12-25T09:26:31.996Z,99.90
2022-12-25T09:28:58.942Z,99.90
2022-12-25T09:31:26.035Z,99.90
2022-12-25T09:33:57.876Z,99.90
2022-12-25T09:36:25.843Z,99.90
2022-12-25T09:38:53.013Z,99.90
2022-12-25T09:41:37.570Z,99.90
2022-12-25T09:44:16.790Z,99.90
2022-12-25T09:47:06.663Z,99.90
2022-12-25T09:49:50.653Z,99.90
2022-12-25T09:52:22.778Z,99.90
2022-12-25T09:55:19.752Z,99.90
2022-12-25T09:57:52.672Z,99.90
2022-12-25T10:00:23.688Z,99.90
2022-12-25T10:03:11.484Z,1.00
2022-12-25T10:06:06.261Z,1.00
2022-12-25T10:08:48.044Z,1.00
2022-12-25T10:11:38.754Z,1.00
2022-12-25T10:14:20.743Z,11.70
2022-12-25T10:17:11.574Z,1.00
2022-12-25T10:19:53.160Z,99.90
2022-12-25T10:22:36.040Z,1.00
2022-12-25T10:25:04.754Z,43.60
2022-12-25T10:27:40.776Z,1.00
2022-12-25T10:30:17.518Z,1.00
2022-12-25T10:32:45.751Z,1.00
2022-12-25T10:35:14.818Z,1.00
2022-12-25T10:37:43.707Z,83.70
2022-12-25T10:40:37.941Z,1.00
2022-12-25T10:43:12.454Z,1.00
2022-12-25T10:45:44.545Z,1.00
2022-12-25T10:48:25.639Z,99.90
2022-12-25T10:50:52.871Z,99.90
2022-12-25T10:53:25.847Z,99.90
2022-12-25T10:56:04.570Z,99.90
2022-12-25T10:58:32.606Z,1.00
2022-12-25T11:01:03.985Z,1.00
2022-12-25T11:03:34.128Z,1.00
2022-12-25T11:06:02.852Z,1.00
2022-12-25T11:08:31.877Z,1.00
2022-12-25T11:11:06.614Z,1.00
2022-12-25T11:13:39.283Z,64.90
2022-12-25T11:16:30.619Z,99.90
2022-12-25T11:18:58.584Z,99.90
2022-12-25T11:21:28.956Z,99.90
2022-12-25T11:24:00.100Z,99.90
2022-12-25T11:26:29.495Z,99.90
2022-12-25T11:28:56.976Z,1.00
2022-12-25T11:31:39.316Z,1.00
2022-12-25T11:34:55.577Z,1.00
2022-12-25T11:37:32.703Z,1.00
2022-12-25T11:40:00.255Z,1.00
2022-12-25T11:42:35.425Z,1.00
2022-12-25T11:45:19.245Z,1.00
2022-12-25T11:47:51.809Z,1.00
2022-12-25T11:50:32.725Z,21.70
2022-12-25T11:53:05.404Z,99.90
2022-12-25T11:55:45.721Z,99.90
2022-12-25T11:58:41.045Z,99.90
2022-12-25T12:01:30.940Z,99.90
2022-12-25T12:04:00.853Z,1.00
2022-12-25T12:06:52.233Z,1.00
2022-12-25T12:10:10.518Z,1.00
2022-12-25T12:12:57.986Z,99.90
2022-12-25T12:15:45.011Z,99.90
2022-12-25T12:18:28.190Z,99.90
2022-12-25T12:21:09.952Z,1.00
2022-12-25T12:24:11.473Z,1.00
2022-12-25T12:26:42.662Z,1.00
2022-12-25T12:29:28.122Z,1.00
2022-12-25T12:31:59.801Z,1.00
2022-12-25T12:34:34.405Z,1.00
2022-12-25T12:37:06.088Z,1.00
2022-12-25T12:39:39.416Z,1.00
2022-12-25T12:42:35.784Z,1.00
2022-12-25T12:45:16.607Z,1.00
2022-12-25T12:47:46.900Z,1.00
2022-12-25T12:50:39.812Z,1.00
2022-12-25T12:53:40.472Z,1.00
2022-12-25T12:56:20.341Z,1.00
2022-12-25T12:58:52.400Z,1.00
2022-12-25T13:01:34.565Z,1.00
2022-12-25T13:04:13.749Z,1.00
2022-12-25T13:06:48.899Z,1.00
2022-12-25T13:09:15.725Z,1.00
2022-12-25T13:11:44.172Z,99.90
2022-12-25T13:14:18.542Z,44.20
2022-12-25T13:16:48.503Z,1.00
2022-12-25T13:19:18.157Z,1.00
2022-12-25T13:21:57.173Z,1.00
2022-12-25T13:24:32.198Z,1.00
2022-12-25T13:26:59.612Z,53.30
2022-12-25T13:29:36.291Z,99.90
2022-12-25T13:32:08.509Z,99.90
2022-12-25T13:34:40.935Z,99.90
2022-12-25T13:37:15.008Z,99.90
2022-12-25T13:39:53.379Z,99.90
2022-12-25T13:42:26.304Z,99.90
2022-12-25T13:45:03.000Z,99.90
2022-12-25T13:47:35.724Z,99.90
2022-12-25T13:50:33.030Z,99.90
2022-12-25T13:53:16.074Z,1.00
2022-12-25T13:55:47.781Z,1.00
2022-12-25T13:58:30.647Z,1.00
2022-12-25T14:00:59.563Z,1.00
2022-12-25T14:03:29.656Z,99.90
2022-12-25T14:06:01.965Z,1.00
2022-12-25T14:08:33.661Z,1.00
2022-12-25T14:11:06.679Z,1.00
2022-12-25T14:13:40.287Z,1.00
2022-12-25T14:16:08.710Z,1.00
2022-12-25T14:18:35.761Z,1.00
2022-12-25T14:21:05.453Z,1.00
2022-12-25T14:23:46.940Z,1.00
2022-12-25T14:26:24.336Z,1.00
2022-12-25T14:29:05.553Z,1.00
2022-12-25T14:31:33.784Z,1.00
2022-12-25T14:34:03.153Z,1.00
2022-12-25T14:36:33.230Z,1.00
2022-12-25T14:39:04.073Z,1.00
2022-12-25T14:41:41.721Z,1.00
2022-12-25T14:44:39.826Z,1.00
2022-12-25T14:47:16.252Z,1.00
2022-12-25T14:49:43.900Z,1.00
2022-12-25T14:52:18.142Z,1.00
2022-12-25T14:55:04.921Z,1.00
2022-12-25T14:57:37.258Z,1.00
2022-12-25T15:00:08.622Z,1.00
2022-12-25T15:02:43.159Z,1.00
2022-12-25T15:05:29.794Z,99.90
2022-12-25T15:08:05.109Z,99.90
2022-12-25T15:13:19.785Z,99.90
2022-12-25T15:16:06.196Z,99.90
2022-12-25T15:18:44.912Z,99.90
2022-12-25T15:21:15.874Z,99.90
2022-12-25T15:23:42.927Z,99.90
2022-12-25T15:26:14.325Z,99.90
2022-12-25T15:28:42.061Z,99.90
2022-12-25T15:31:23.205Z,99.90
2022-12-25T15:33:50.770Z,99.90
2022-12-25T15:36:17.735Z,99.90
2022-12-25T15:38:45.111Z,99.90
2022-12-25T15:41:36.967Z,99.90
2022-12-25T15:44:06.082Z,99.90
2022-12-25T15:46:34.065Z,99.90
2022-12-25T15:49:01.187Z,99.90
2022-12-25T15:51:28.394Z,99.90
2022-12-25T15:53:55.316Z,99.90
2022-12-25T15:56:23.387Z,99.90
2022-12-25T15:58:50.451Z,99.90
2022-12-25T16:01:19.446Z,99.90
2022-12-25T16:03:47.325Z,99.90
2022-12-25T16:06:17.579Z,99.90
2022-12-25T16:08:44.730Z,99.90
2022-12-25T16:11:11.979Z,99.90
2022-12-25T16:13:39.039Z,99.90
2022-12-25T16:16:07.375Z,99.90
2022-12-25T16:18:34.339Z,99.90
2022-12-25T16:21:01.571Z,99.90
2022-12-25T16:23:28.920Z,99.90
2022-12-25T16:25:55.806Z,99.90
2022-12-25T16:28:22.794Z,99.90
2022-12-25T16:30:49.826Z,99.90
2022-12-25T16:33:16.817Z,99.90
2022-12-25T16:35:44.207Z,99.90
2022-12-25T16:38:11.790Z,99.90
2022-12-25T16:40:38.726Z,99.90
2022-12-25T16:43:05.979Z,99.90
2022-12-25T16:45:38.401Z,99.90
2022-12-25T16:48:06.435Z,99.90
2022-12-25T16:50:33.431Z,99.90
2022-12-25T16:53:00.374Z,99.90
2022-12-25T16:55:30.120Z,99.90
2022-12-25T16:57:57.588Z,99.90
2022-12-25T17:00:24.771Z,99.90
2022-12-25T17:02:52.083Z,99.90
2022-12-25T17:05:22.717Z,99.90
2022-12-25T17:07:50.303Z,99.90
2022-12-25T17:10:17.893Z,99.90
2022-12-25T17:12:45.709Z,99.90
2022-12-25T17:15:12.967Z,99.90
2022-12-25T17:17:39.960Z,99.90
2022-12-25T17:20:07.664Z,99.90
2022-12-25T17:22:34.649Z,99.90
2022-12-25T17:25:01.690Z,99.90
2022-12-25T17:27:28.652Z,99.90
2022-12-25T17:29:55.637Z,99.90
2022-12-25T17:32:22.592Z,99.90
2022-12-25T17:34:49.538Z,99.90
2022-12-25T17:37:16.384Z,99.90
2022-12-25T17:39:43.283Z,99.90
2022-12-25T17:42:10.211Z,99.90
2022-12-25T17:44:37.434Z,99.90
2022-12-25T17:47:04.637Z,99.90
2022-12-25T17:49:31.681Z,99.90
2022-12-25T17:51:58.673Z,99.90
2022-12-25T17:54:25.635Z,99.90
2022-12-25T17:56:52.564Z,99.90
2022-12-25T17:59:20.546Z,99.90
2022-12-25T18:01:49.027Z,99.90
2022-12-25T18:04:16.329Z,99.90
2022-12-25T18:06:43.342Z,99.90
2022-12-25T18:09:11.677Z,99.90
2022-12-25T18:11:40.935Z,99.90
2022-12-25T18:14:10.975Z,99.90
2022-12-25T18:16:42.061Z,99.90
2022-12-25T18:19:10.476Z,99.90
2022-12-25T18:21:37.820Z,99.90
2022-12-25T18:24:06.028Z,99.90
2022-12-25T18:26:33.135Z,99.90
2022-12-25T18:29:00.698Z,99.90
2022-12-25T18:31:30.251Z,99.90
2022-12-25T18:33:59.813Z,99.90
2022-12-25T18:36:28.670Z,99.90
2022-12-25T18:38:56.091Z,99.90
2022-12-25T18:41:25.340Z,99.90
2022-12-25T18:43:55.627Z,99.90
2022-12-25T18:46:27.912Z,99.90
2022-12-25T18:48:56.323Z,99.90
2022-12-25T18:51:23.606Z,1.00
2022-12-25T18:53:51.187Z,1.00
2022-12-25T18:56:20.070Z,99.90
2022-12-25T18:58:47.875Z,1.00
2022-12-25T19:01:23.253Z,99.90
2022-12-25T19:03:51.210Z,65.90
2022-12-25T19:06:28.891Z,99.90
2022-12-25T19:08:56.303Z,1.00
2022-12-25T19:11:23.355Z,1.00
2022-12-25T19:13:50.330Z,1.00
2022-12-25T19:16:17.734Z,99.90
2022-12-25T19:18:45.558Z,99.90
2022-12-25T19:21:12.634Z,99.90
2022-12-25T19:23:40.596Z,99.90
2022-12-25T19:26:08.853Z,99.90
2022-12-25T19:28:36.774Z,99.90
2022-12-25T19:31:07.494Z,99.90
2022-12-25T19:33:35.872Z,99.90
2022-12-25T19:36:16.328Z,99.90
2022-12-25T19:38:43.912Z,99.90
2022-12-25T19:41:16.876Z,99.90
2022-12-25T19:43:47.420Z,99.90
2022-12-25T19:46:38.187Z,1.00
2022-12-25T19:49:05.130Z,99.90
2022-12-25T19:51:44.333Z,1.00
2022-12-25T19:54:18.843Z,99.90
2022-12-25T19:56:46.207Z,99.90
2022-12-25T19:59:14.603Z,99.90
2022-12-25T20:01:42.244Z,1.00
2022-12-25T20:04:10.517Z,1.00
2022-12-25T20:06:39.177Z,15.70
2022-12-25T20:09:08.645Z,99.90
2022-12-25T20:11:37.053Z,99.90
2022-12-25T20:14:05.412Z,1.00
2022-12-25T20:16:32.611Z,1.00
2022-12-25T20:18:59.658Z,1.00
2022-12-25T20:21:30.045Z,59.60
2022-12-25T20:23:57.779Z,1.00
2022-12-25T20:26:31.041Z,1.00
2022-12-25T20:29:00.907Z,1.00
2022-12-25T20:31:30.225Z,1.00
2022-12-25T20:33:59.792Z,1.00
2022-12-25T20:36:31.225Z,1.00
2022-12-25T20:39:04.169Z,1.00
2022-12-25T20:41:33.710Z,1.00
2022-12-25T20:44:02.032Z,1.00
2022-12-25T20:46:29.185Z,1.00
2022-12-25T20:48:56.217Z,1.00
2022-12-25T20:51:29.566Z,1.00
2022-12-25T20:53:56.812Z,1.00
2022-12-25T20:56:26.715Z,99.90
2022-12-25T20:59:01.052Z,99.90
2022-12-25T21:01:29.564Z,99.90
2022-12-25T21:03:58.030Z,46.80
2022-12-25T21:06:25.536Z,1.00
2022-12-25T21:08:52.519Z,1.00
2022-12-25T21:11:22.988Z,1.00
2022-12-25T21:13:52.887Z,1.00
2022-12-25T21:16:22.422Z,1.00
2022-12-25T21:18:51.682Z,1.00
2022-12-25T21:21:19.335Z,99.90
2022-12-25T21:23:46.856Z,99.90
2022-12-25T21:26:26.409Z,99.90
2022-12-25T21:29:00.389Z,99.90
2022-12-25T21:31:28.287Z,81.70
2022-12-25T21:33:57.471Z,99.90
2022-12-25T21:36:33.724Z,99.90
2022-12-25T21:39:02.739Z,37.00
2022-12-25T21:41:31.605Z,1.00
2022-12-25T21:43:58.912Z,1.00
2022-12-25T21:46:26.710Z,1.00
2022-12-25T21:48:54.061Z,1.00
2022-12-25T21:51:45.789Z,99.90
2022-12-25T21:54:13.740Z,99.90
2022-12-25T21:56:45.437Z,99.90
2022-12-25T21:59:23.684Z,99.90
2022-12-25T22:01:52.282Z,47.00
2022-12-25T22:04:21.910Z,1.00
2022-12-25T22:07:07.796Z,1.00
2022-12-25T22:09:39.225Z,1.00
2022-12-25T22:12:30.251Z,99.90
2022-12-25T22:15:10.768Z,99.90
2022-12-25T22:18:03.617Z,99.90
2022-12-25T22:20:38.394Z,99.90
2022-12-25T22:23:05.940Z,1.00
2022-12-25T22:25:35.342Z,1.00
2022-12-25T22:28:05.403Z,1.00
2022-12-25T22:30:34.640Z,99.90
2022-12-25T22:33:02.845Z,1.00
2022-12-25T22:35:29.741Z,1.00
2022-12-25T22:37:56.669Z,1.00
2022-12-25T22:40:28.734Z,1.00
2022-12-25T22:42:56.520Z,29.40
2022-12-25T22:45:24.806Z,1.00
2022-12-25T22:48:08.497Z,1.00
2022-12-25T22:50:44.633Z,1.00
2022-12-25T22:53:12.517Z,1.00
2022-12-25T22:55:48.975Z,1.00
2022-12-25T22:58:16.952Z,1.00
2022-12-25T23:00:47.432Z,1.00
2022-12-25T23:03:17.017Z,68.80
2022-12-25T23:05:44.338Z,87.50
2022-12-25T23:08:19.641Z,99.90
2022-12-25T23:10:52.653Z,99.90
2022-12-25T23:13:42.775Z,92.30
2022-12-25T23:16:17.377Z,8.20
2022-12-25T23:19:03.874Z,1.00
2022-12-25T23:21:50.046Z,1.00
2022-12-25T23:24:42.319Z,1.00
2022-12-25T23:27:12.419Z,99.90
2022-12-25T23:29:42.132Z,1.00
2022-12-25T23:32:18.795Z,1.00
2022-12-25T23:34:50.086Z,1.00
2022-12-25T23:37:19.387Z,99.90
2022-12-25T23:39:50.147Z,1.00
2022-12-25T23:42:17.854Z,1.00
2022-12-25T23:44:47.887Z,1.00
2022-12-25T23:47:15.066Z,99.90
2022-12-25T23:49:42.108Z,1.00
2022-12-25T23:52:12.509Z,1.00
2022-12-25T23:54:39.462Z,99.90
2022-12-25T23:57:08.961Z,1.00
2022-12-25T23:59:35.923Z,1.00
